createdAt,value
2022-08-09T00:01:55.368Z,24.00
2022-08-09T00:04:34.154Z,23.90
2022-08-09T00:07:10.423Z,23.90
2022-08-09T00:09:40.323Z,23.90
2022-08-09T00:12:09.418Z,23.80
2022-08-09T00:14:55.921Z,23.80
2022-08-09T00:18:10.703Z,23.80
2022-08-09T00:20:15.265Z,23.70
2022-08-09T00:22:47.275Z,23.70
2022-08-09T00:25:23.450Z,23.70
2022-08-09T00:28:03.921Z,23.60
2022-08-09T00:30:33.545Z,23.60
2022-08-09T00:33:02.696Z,23.50
2022-08-09T00:35:43.316Z,23.50
2022-08-09T00:38:13.935Z,23.60
2022-08-09T00:40:53.126Z,23.50
2022-08-09T00:44:11.081Z,23.50
2022-08-09T00:46:11.159Z,23.50
2022-08-09T00:48:57.188Z,23.40
2022-08-09T00:51:33.757Z,23.40
2022-08-09T00:54:04.334Z,23.40
2022-08-09T00:56:33.168Z,23.30
2022-08-09T00:59:01.802Z,23.30
2022-08-09T01:01:44.578Z,23.30
2022-08-09T01:04:23.991Z,23.20
2022-08-09T01:07:05.214Z,23.20
2022-08-09T01:09:44.536Z,23.20
2022-08-09T01:12:26.757Z,23.10
2022-08-09T01:15:06.052Z,23.10
2022-08-09T01:17:57.775Z,23.10
2022-08-09T01:20:38.041Z,23.10
2022-08-09T01:24:01.748Z,23.10
2022-08-09T01:26:36.176Z,23.10
2022-08-09T01:29:06.368Z,23.10
2022-08-09T01:32:29.703Z,23.10
2022-08-09T01:34:27.133Z,23.10
2022-08-09T01:36:59.768Z,23.10
2022-08-09T01:39:31.090Z,23.10
2022-08-09T01:42:11.045Z,23.00
2022-08-09T01:44:42.322Z,23.00
2022-08-09T01:47:12.519Z,23.00
2022-08-09T01:49:43.065Z,23.00
2022-08-09T01:52:21.953Z,23.00
2022-08-09T01:54:57.600Z,23.00
2022-08-09T01:57:40.392Z,23.00
2022-08-09T02:00:34.641Z,22.90
2022-08-09T02:03:07.381Z,22.90
2022-08-09T02:06:03.369Z,22.90
2022-08-09T02:08:57.653Z,22.90
2022-08-09T02:11:42.042Z,22.90
2022-08-09T02:14:26.249Z,22.80
2022-08-09T02:17:15.535Z,22.80
2022-08-09T02:19:46.570Z,22.80
2022-08-09T02:22:34.849Z,22.70
2022-08-09T02:25:15.195Z,22.70
2022-08-09T02:28:00.107Z,22.70
2022-08-09T02:30:41.541Z,22.60
2022-08-09T02:33:14.225Z,22.60
2022-08-09T02:36:01.108Z,22.60
2022-08-09T02:38:35.431Z,22.60
2022-08-09T02:41:10.627Z,22.60
2022-08-09T02:43:54.710Z,22.60
2022-08-09T02:46:28.953Z,22.60
2022-08-09T02:49:04.463Z,22.60
2022-08-09T02:51:40.456Z,22.60
2022-08-09T02:54:13.932Z,22.70
2022-08-09T02:56:51.387Z,22.70
2022-08-09T02:59:26.538Z,22.70
2022-08-09T03:02:12.053Z,22.70
2022-08-09T03:04:42.980Z,22.70
2022-08-09T03:07:14.469Z,22.70
2022-08-09T03:09:54.259Z,22.70
2022-08-09T03:12:25.747Z,22.70
2022-08-09T03:14:56.641Z,22.70
2022-08-09T03:17:27.773Z,22.70
2022-08-09T03:20:03.195Z,22.70
2022-08-09T03:22:41.290Z,22.70
2022-08-09T03:25:25.779Z,22.70
2022-08-09T03:28:04.622Z,22.70
2022-08-09T03:30:40.611Z,22.70
2022-08-09T03:33:18.649Z,22.70
2022-08-09T03:36:12.554Z,22.70
2022-08-09T03:38:42.042Z,22.60
2022-08-09T03:41:14.631Z,22.60
2022-08-09T03:44:03.721Z,22.60
2022-08-09T03:46:34.644Z,22.60
2022-08-09T03:49:07.924Z,22.60
2022-08-09T03:51:55.621Z,22.60
2022-08-09T03:54:32.423Z,22.60
2022-08-09T03:57:18.595Z,22.60
2022-08-09T03:59:53.214Z,22.50
2022-08-09T04:02:28.348Z,22.50
2022-08-09T04:05:06.268Z,22.50
2022-08-09T04:07:52.476Z,22.50
2022-08-09T04:10:29.368Z,22.50
2022-08-09T04:13:04.245Z,22.40
2022-08-09T04:15:51.933Z,22.40
2022-08-09T04:18:22.515Z,22.40
2022-08-09T04:20:55.492Z,22.40
2022-08-09T04:23:25.806Z,22.30
2022-08-09T04:25:55.549Z,22.30
2022-08-09T04:28:30.798Z,22.30
2022-08-09T04:31:09.202Z,22.30
2022-08-09T04:33:52.132Z,22.30
2022-08-09T04:36:26.048Z,22.20
2022-08-09T04:38:56.373Z,22.20
2022-08-09T04:41:32.829Z,22.20
2022-08-09T04:44:06.536Z,22.20
2022-08-09T04:46:59.517Z,22.20
2022-08-09T04:49:52.906Z,22.20
2022-08-09T04:52:26.514Z,22.20
2022-08-09T04:54:57.234Z,22.20
2022-08-09T04:57:26.920Z,22.20
2022-08-09T05:00:16.676Z,22.20
2022-08-09T05:02:48.528Z,22.20
2022-08-09T05:05:32.205Z,22.20
2022-08-09T05:08:13.831Z,22.20
2022-08-09T05:10:44.622Z,22.20
2022-08-09T05:13:14.281Z,22.10
2022-08-09T05:15:48.140Z,22.10
2022-08-09T05:18:55.244Z,22.10
2022-08-09T05:21:22.689Z,22.10
2022-08-09T05:24:00.286Z,22.10
2022-08-09T05:26:37.065Z,22.10
2022-08-09T05:29:21.972Z,22.10
2022-08-09T05:31:56.933Z,22.10
2022-08-09T05:34:31.245Z,22.10
2022-08-09T05:37:02.396Z,22.10
2022-08-09T05:39:43.716Z,22.10
2022-08-09T05:42:20.539Z,22.00
2022-08-09T05:45:00.374Z,22.00
2022-08-09T05:47:30.269Z,22.00
2022-08-09T05:50:31.069Z,22.00
2022-08-09T05:52:53.659Z,22.00
2022-08-09T05:55:25.248Z,22.00
2022-08-09T05:57:57.365Z,21.90
2022-08-09T06:00:29.572Z,22.00
2022-08-09T06:02:59.298Z,22.00
2022-08-09T06:05:30.777Z,22.00
2022-08-09T06:08:24.411Z,22.00
2022-08-09T06:10:56.085Z,22.00
2022-08-09T06:13:25.454Z,22.00
2022-08-09T06:15:58.088Z,22.00
2022-08-09T06:18:30.170Z,22.00
2022-08-09T06:20:59.806Z,22.10
2022-08-09T06:23:58.982Z,22.10
2022-08-09T06:26:28.428Z,22.10
2022-08-09T06:28:59.893Z,22.10
2022-08-09T06:31:40.173Z,22.20
2022-08-09T06:34:23.538Z,22.20
2022-08-09T06:36:59.122Z,22.30
2022-08-09T06:39:39.694Z,22.30
2022-08-09T06:42:24.467Z,22.30
2022-08-09T06:44:58.137Z,22.30
2022-08-09T06:47:29.933Z,22.30
2022-08-09T06:50:13.720Z,22.30
2022-08-09T06:52:48.867Z,22.30
2022-08-09T06:55:23.120Z,22.30
2022-08-09T06:58:03.139Z,22.30
2022-08-09T07:00:49.223Z,22.40
2022-08-09T07:03:27.806Z,22.40
2022-08-09T07:06:03.596Z,22.40
2022-08-09T07:08:37.272Z,22.40
2022-08-09T07:11:08.709Z,22.40
2022-08-09T07:13:45.328Z,22.50
2022-08-09T07:16:41.668Z,22.50
2022-08-09T07:19:15.545Z,22.50
2022-08-09T07:21:55.381Z,22.50
2022-08-09T07:24:31.935Z,22.50
2022-08-09T07:27:26.307Z,22.50
2022-08-09T07:30:02.688Z,22.50
2022-08-09T07:32:34.305Z,22.60
2022-08-09T07:35:10.199Z,22.60
2022-08-09T07:37:44.489Z,22.60
2022-08-09T07:40:18.566Z,22.60
2022-08-09T07:42:54.418Z,22.60
2022-08-09T07:45:39.150Z,22.70
2022-08-09T07:48:25.566Z,22.70
2022-08-09T07:51:09.177Z,22.70
2022-08-09T07:54:05.321Z,22.80
2022-08-09T07:56:38.930Z,22.80
2022-08-09T07:59:34.049Z,22.90
2022-08-09T08:02:07.497Z,22.90
2022-08-09T08:04:38.882Z,23.00
2022-08-09T08:07:14.954Z,23.00
2022-08-09T08:10:08.864Z,23.10
2022-08-09T08:12:45.502Z,23.10
2022-08-09T08:15:18.178Z,23.20
2022-08-09T08:17:58.516Z,23.30
2022-08-09T08:20:32.755Z,23.30
2022-08-09T08:23:16.008Z,23.40
2022-08-09T08:25:49.912Z,23.50
2022-08-09T08:28:26.116Z,23.50
2022-08-09T08:31:13.663Z,23.60
2022-08-09T08:33:52.710Z,23.70
2022-08-09T08:36:29.036Z,23.70
2022-08-09T08:39:00.164Z,23.80
2022-08-09T08:41:50.398Z,23.80
2022-08-09T08:44:27.414Z,23.90
2022-08-09T08:47:02.096Z,24.00
2022-08-09T08:49:46.957Z,24.10
2022-08-09T08:52:52.755Z,24.20
2022-08-09T08:55:10.959Z,24.30
2022-08-09T08:57:42.616Z,24.40
2022-08-09T09:00:27.276Z,24.40
2022-08-09T09:03:12.166Z,24.50
2022-08-09T09:05:59.793Z,24.50
2022-08-09T09:08:37.826Z,24.60
2022-08-09T09:11:13.886Z,24.70
2022-08-09T09:13:57.038Z,24.70
2022-08-09T09:16:32.233Z,24.80
2022-08-09T09:19:22.418Z,24.80
2022-08-09T09:22:07.993Z,24.90
2022-08-09T09:24:46.584Z,25.00
2022-08-09T09:28:04.184Z,25.00
2022-08-09T09:30:40.046Z,25.10
2022-08-09T09:33:14.256Z,25.20
2022-08-09T09:36:02.678Z,25.20
2022-08-09T09:38:49.748Z,25.30
2022-08-09T09:41:32.942Z,25.30
2022-08-09T09:44:12.490Z,25.40
2022-08-09T09:46:50.640Z,25.40
2022-08-09T09:49:49.901Z,25.50
2022-08-09T09:52:16.524Z,25.50
2022-08-09T09:55:16.012Z,25.60
2022-08-09T09:58:03.860Z,25.60
2022-08-09T10:00:55.526Z,25.70
2022-08-09T10:03:42.825Z,25.80
2022-08-09T10:06:13.458Z,25.90
2022-08-09T10:08:54.827Z,25.90
2022-08-09T10:12:01.143Z,25.90
2022-08-09T10:14:32.992Z,26.00
2022-08-09T10:17:39.207Z,26.10
2022-08-09T10:20:01.657Z,26.20
2022-08-09T10:22:33.649Z,26.20
2022-08-09T10:25:11.107Z,26.30
2022-08-09T10:27:56.613Z,26.40
2022-08-09T10:33:29.669Z,26.50
2022-08-09T10:36:09.726Z,26.50
2022-08-09T10:38:56.893Z,26.60
2022-08-09T10:41:28.897Z,26.70
2022-08-09T10:44:01.874Z,26.80
2022-08-09T10:47:04.048Z,26.80
2022-08-09T10:50:05.675Z,26.90
2022-08-09T10:53:15.530Z,26.90
2022-08-09T10:55:58.456Z,27.00
2022-08-09T10:58:34.681Z,27.00
2022-08-09T11:03:03.191Z,27.10
2022-08-09T11:04:20.157Z,27.10
2022-08-09T11:07:55.046Z,27.20
2022-08-09T11:10:56.129Z,27.30
2022-08-09T11:13:50.001Z,27.30
2022-08-09T11:16:39.331Z,27.40
2022-08-09T11:19:12.322Z,27.40
2022-08-09T11:22:10.817Z,27.50
2022-08-09T11:25:08.196Z,27.60
2022-08-09T11:28:02.469Z,27.60
2022-08-09T11:30:38.506Z,27.70
2022-08-09T11:33:28.237Z,27.80
2022-08-09T11:36:00.205Z,27.80
2022-08-09T11:38:33.308Z,27.90
2022-08-09T11:41:38.338Z,27.90
2022-08-09T11:44:10.286Z,28.00
2022-08-09T11:46:58.013Z,28.00
2022-08-09T11:50:55.202Z,28.10
2022-08-09T11:53:59.355Z,28.10
2022-08-09T11:56:34.522Z,28.20
2022-08-09T11:59:30.572Z,28.20
2022-08-09T12:02:17.379Z,28.30
2022-08-09T12:04:58.792Z,28.40
2022-08-09T12:07:41.625Z,28.40
2022-08-09T12:10:14.377Z,28.40
2022-08-09T12:13:03.479Z,28.50
2022-08-09T12:15:52.091Z,28.50
2022-08-09T12:18:30.067Z,28.60
2022-08-09T12:21:26.183Z,28.60
2022-08-09T12:24:08.903Z,28.60
2022-08-09T12:26:44.866Z,28.70
2022-08-09T12:29:51.466Z,28.80
2022-08-09T12:32:27.647Z,28.80
2022-08-09T12:35:02.630Z,28.90
2022-08-09T12:37:49.633Z,28.90
2022-08-09T12:40:23.212Z,29.00
2022-08-09T12:42:54.580Z,29.00
2022-08-09T12:45:34.814Z,29.00
2022-08-09T12:48:11.037Z,29.10
2022-08-09T12:50:57.860Z,29.10
2022-08-09T12:53:37.154Z,29.10
2022-08-09T12:56:39.697Z,29.20
2022-08-09T12:59:10.439Z,29.20
2022-08-09T13:01:48.759Z,29.30
2022-08-09T13:04:35.927Z,29.30
2022-08-09T13:07:16.405Z,29.40
2022-08-09T13:09:55.740Z,29.40
2022-08-09T13:12:32.342Z,29.40
2022-08-09T13:15:07.648Z,29.50
2022-08-09T13:18:02.860Z,29.50
2022-08-09T13:20:37.826Z,29.60
2022-08-09T13:24:16.422Z,29.60
2022-08-09T13:26:36.681Z,29.70
2022-08-09T13:29:14.110Z,29.70
2022-08-09T13:32:15.665Z,29.80
2022-08-09T13:34:48.546Z,29.80
2022-08-09T13:37:24.717Z,29.80
2022-08-09T13:41:45.908Z,29.80
2022-08-09T13:42:57.124Z,29.90
2022-08-09T13:45:32.405Z,29.90
2022-08-09T13:48:15.721Z,29.90
2022-08-09T13:50:44.570Z,30.00
2022-08-09T13:53:16.733Z,30.00
2022-08-09T13:55:47.950Z,30.10
2022-08-09T13:58:16.902Z,30.10
2022-08-09T14:00:52.589Z,30.20
2022-08-09T14:04:05.366Z,30.20
2022-08-09T14:06:19.223Z,30.20
2022-08-09T14:08:48.358Z,30.30
2022-08-09T14:11:18.503Z,30.40
2022-08-09T14:14:23.469Z,30.50
2022-08-09T14:16:40.518Z,30.50
2022-08-09T14:19:09.343Z,30.60
2022-08-09T14:21:38.150Z,30.60
2022-08-09T14:24:18.630Z,30.60
2022-08-09T14:26:53.480Z,30.70
2022-08-09T14:30:04.196Z,30.70
2022-08-09T14:32:16.147Z,30.70
2022-08-09T14:34:45.243Z,30.70
2022-08-09T14:37:13.794Z,30.70
2022-08-09T14:39:46.536Z,30.70
2022-08-09T14:42:30.166Z,30.80
2022-08-09T14:46:39.558Z,30.70
2022-08-09T14:47:58.609Z,30.80
2022-08-09T14:50:32.312Z,30.70
2022-08-09T14:53:02.181Z,30.70
2022-08-09T14:55:32.337Z,30.70
2022-08-09T14:58:03.712Z,30.60
2022-08-09T15:00:36.276Z,30.70
2022-08-09T15:03:08.909Z,30.70
2022-08-09T15:05:50.175Z,30.60
2022-08-09T15:08:21.239Z,30.60
2022-08-09T15:11:01.071Z,30.60
2022-08-09T15:13:53.765Z,30.60
2022-08-09T15:16:22.850Z,30.60
2022-08-09T15:19:05.668Z,30.60
2022-08-09T15:21:58.055Z,30.60
2022-08-09T15:24:29.970Z,30.60
2022-08-09T15:26:59.644Z,30.50
2022-08-09T15:30:57.710Z,30.50
2022-08-09T15:32:28.862Z,30.50
2022-08-09T15:35:01.345Z,30.50
2022-08-09T15:37:56.331Z,30.50
2022-08-09T15:40:32.375Z,30.50
2022-08-09T15:43:02.571Z,30.50
2022-08-09T15:46:02.843Z,30.50
2022-08-09T15:48:29.321Z,30.40
2022-08-09T15:51:02.702Z,30.40
2022-08-09T15:54:04.806Z,30.40
2022-08-09T15:56:39.805Z,30.30
2022-08-09T15:59:08.577Z,30.30
2022-08-09T16:01:37.255Z,30.20
2022-08-09T16:04:06.138Z,30.20
2022-08-09T16:06:44.815Z,30.10
2022-08-09T16:09:19.439Z,30.20
2022-08-09T16:12:11.228Z,30.10
2022-08-09T16:14:40.361Z,30.10
2022-08-09T16:17:08.866Z,30.10
2022-08-09T16:19:49.237Z,30.10
2022-08-09T16:22:28.090Z,30.10
2022-08-09T16:24:59.572Z,30.10
2022-08-09T16:27:30.270Z,30.10
2022-08-09T16:30:02.445Z,30.10
2022-08-09T16:32:54.447Z,30.10
2022-08-09T16:35:55.961Z,30.00
2022-08-09T16:38:14.339Z,30.00
2022-08-09T16:40:47.967Z,30.00
2022-08-09T16:43:16.574Z,30.00
2022-08-09T16:45:46.670Z,30.00
2022-08-09T16:48:38.241Z,29.90
2022-08-09T16:51:07.454Z,29.90
2022-08-09T16:53:56.255Z,29.90
2022-08-09T16:56:27.521Z,29.90
2022-08-09T16:59:00.993Z,29.80
2022-08-09T17:01:33.582Z,29.80
2022-08-09T17:04:03.481Z,29.80
2022-08-09T17:06:33.900Z,29.80
2022-08-09T17:09:43.955Z,29.70
2022-08-09T17:12:12.411Z,29.70
2022-08-09T17:14:47.816Z,29.70
2022-08-09T17:17:26.382Z,29.70
2022-08-09T17:20:28.710Z,29.70
2022-08-09T17:22:51.630Z,29.70
2022-08-09T17:25:23.545Z,29.60
2022-08-09T17:27:55.228Z,29.70
2022-08-09T17:30:26.530Z,29.60
2022-08-09T17:33:05.154Z,29.60
2022-08-09T17:35:46.751Z,29.60
2022-08-09T17:38:29.259Z,29.60
2022-08-09T17:41:03.309Z,29.60
2022-08-09T17:43:36.886Z,29.50
2022-08-09T17:46:09.161Z,29.50
2022-08-09T17:48:51.532Z,29.50
2022-08-09T17:51:22.082Z,29.50
2022-08-09T17:53:54.804Z,29.50
2022-08-09T17:56:35.289Z,29.50
2022-08-09T17:59:11.273Z,29.40
2022-08-09T18:02:07.508Z,29.40
2022-08-09T18:04:33.911Z,29.30
2022-08-09T18:07:07.768Z,29.40
2022-08-09T18:09:41.599Z,29.30
2022-08-09T18:12:19.712Z,29.20
2022-08-09T18:14:54.570Z,29.20
2022-08-09T18:18:02.806Z,29.20
2022-08-09T18:20:59.838Z,29.20
2022-08-09T18:23:05.772Z,29.10
2022-08-09T18:25:52.762Z,29.10
2022-08-09T18:30:37.956Z,29.10
2022-08-09T18:31:19.264Z,29.00
2022-08-09T18:34:01.816Z,29.00
2022-08-09T18:36:32.514Z,28.90
2022-08-09T18:39:03.692Z,28.90
2022-08-09T18:41:35.036Z,28.80
2022-08-09T18:44:13.039Z,28.80
2022-08-09T18:46:50.612Z,28.90
2022-08-09T18:49:41.718Z,28.80
2022-08-09T18:52:18.914Z,28.80
2022-08-09T18:54:57.586Z,28.80
2022-08-09T18:57:38.408Z,28.70
2022-08-09T19:00:20.206Z,28.70
2022-08-09T19:02:50.945Z,28.70
2022-08-09T19:05:41.414Z,28.60
2022-08-09T19:08:14.211Z,28.60
2022-08-09T19:10:48.953Z,28.60
2022-08-09T19:13:20.980Z,28.60
2022-08-09T19:15:56.314Z,28.50
2022-08-09T19:18:33.326Z,28.50
2022-08-09T19:21:08.850Z,28.50
2022-08-09T19:24:33.433Z,28.50
2022-08-09T19:26:31.383Z,28.40
2022-08-09T19:29:03.226Z,28.40
2022-08-09T19:31:45.697Z,28.40
2022-08-09T19:34:22.007Z,28.30
2022-08-09T19:36:53.078Z,28.30
2022-08-09T19:39:29.172Z,28.30
2022-08-09T19:42:14.660Z,28.20
2022-08-09T19:44:50.868Z,28.20
2022-08-09T19:47:23.691Z,28.20
2022-08-09T19:50:09.778Z,28.20
2022-08-09T19:52:51.882Z,28.10
2022-08-09T19:55:30.633Z,28.10
2022-08-09T19:58:16.766Z,28.00
2022-08-09T20:00:46.829Z,28.00
2022-08-09T20:04:11.034Z,28.00
2022-08-09T20:06:22.516Z,27.90
2022-08-09T20:08:55.550Z,27.90
2022-08-09T20:11:26.551Z,27.90
2022-08-09T20:13:56.182Z,27.90
2022-08-09T20:16:36.616Z,27.90
2022-08-09T20:19:46.430Z,27.80
2022-08-09T20:22:00.163Z,27.80
2022-08-09T20:24:33.953Z,27.80
2022-08-09T20:27:05.765Z,27.80
2022-08-09T20:29:39.266Z,27.80
2022-08-09T20:32:31.301Z,27.70
2022-08-09T20:35:00.045Z,27.80
2022-08-09T20:38:20.349Z,27.70
2022-08-09T20:40:26.606Z,27.70
2022-08-09T20:42:59.824Z,27.70
2022-08-09T20:46:01.201Z,27.60
2022-08-09T20:48:30.938Z,27.60
2022-08-09T20:51:03.076Z,27.60
2022-08-09T20:53:35.291Z,27.50
2022-08-09T20:56:17.394Z,27.50
2022-08-09T20:58:54.609Z,27.50
2022-08-09T21:01:34.973Z,27.50
2022-08-09T21:05:57.854Z,27.50
2022-08-09T21:07:12.060Z,27.40
2022-08-09T21:09:55.327Z,27.40
2022-08-09T21:15:15.140Z,27.40
2022-08-09T21:18:20.975Z,27.40
2022-08-09T21:20:35.381Z,27.30
2022-08-09T21:23:09.103Z,27.30
2022-08-09T21:25:59.156Z,27.30
2022-08-09T21:28:35.094Z,27.30
2022-08-09T21:31:16.110Z,27.20
2022-08-09T21:33:50.669Z,27.20
2022-08-09T21:36:23.557Z,27.20
2022-08-09T21:38:57.299Z,27.20
2022-08-09T21:42:00.179Z,27.10
2022-08-09T21:44:34.800Z,27.10
2022-08-09T21:47:07.722Z,27.00
2022-08-09T21:49:39.500Z,27.00
2022-08-09T21:52:14.992Z,27.00
2022-08-09T21:54:50.957Z,26.90
2022-08-09T21:57:39.586Z,26.90
2022-08-09T22:00:25.379Z,26.90
2022-08-09T22:02:58.114Z,26.90
2022-08-09T22:05:36.021Z,26.90
2022-08-09T22:08:12.840Z,26.80
2022-08-09T22:11:49.021Z,26.80
2022-08-09T22:13:35.693Z,26.80
2022-08-09T22:16:09.371Z,26.70
2022-08-09T22:18:52.163Z,26.70
2022-08-09T22:21:45.205Z,26.70
2022-08-09T22:24:17.054Z,26.70
2022-08-09T22:26:51.230Z,26.60
2022-08-09T22:29:28.953Z,26.60
2022-08-09T22:32:07.514Z,26.50
2022-08-09T22:35:02.235Z,26.50
2022-08-09T22:37:40.119Z,26.50
2022-08-09T22:40:20.163Z,26.50
2022-08-09T22:42:50.788Z,26.50
2022-08-09T22:48:11.844Z,26.40
2022-08-09T22:48:18.084Z,26.40
2022-08-09T22:50:56.826Z,26.40
2022-08-09T22:53:25.920Z,26.30
2022-08-09T22:56:30.893Z,26.30
2022-08-09T22:58:52.392Z,26.30
2022-08-09T23:01:21.049Z,26.30
2022-08-09T23:04:03.576Z,26.30
2022-08-09T23:06:48.831Z,26.20
2022-08-09T23:09:17.675Z,26.30
2022-08-09T23:11:46.196Z,26.20
2022-08-09T23:14:17.685Z,26.20
2022-08-09T23:17:05.982Z,26.20
2022-08-09T23:20:06.129Z,26.20
2022-08-09T23:22:23.181Z,26.10
2022-08-09T23:24:51.867Z,26.10
2022-08-09T23:27:20.596Z,26.10
2022-08-09T23:29:50.541Z,26.10
2022-08-09T23:32:19.051Z,26.00
2022-08-09T23:34:48.423Z,26.00
2022-08-09T23:37:21.348Z,26.00
2022-08-09T23:39:51.480Z,26.00
2022-08-09T23:42:20.439Z,25.90
2022-08-09T23:44:50.410Z,25.90
2022-08-09T23:47:21.488Z,25.90
2022-08-09T23:49:49.999Z,25.90
2022-08-09T23:52:18.599Z,25.90
2022-08-09T23:54:51.928Z,25.80
2022-08-09T23:57:20.499Z,25.80
